sensor_id;sensor_type;location;lat;lon;timestamp;pressure;altitude;pressure_sealevel;temperature;humidity
4858;BME280;58975;51.978;8.472;2023-04-21T00:02:07;100247.78;;;7.64;100.00
4858;BME280;58975;51.978;8.472;2023-04-21T00:07:03;100236.72;;;7.57;100.00
4858;BME280;58975;51.978;8.472;2023-04-21T00:12:00;100229.38;;;7.73;100.00
4858;BME280;58975;51.978;8.472;2023-04-21T00:16:56;100236.31;;;7.76;100.00
4858;BME280;58975;51.978;8.472;2023-04-21T00:21:55;100223.75;;;7.90;100.00
4858;BME280;58975;51.978;8.472;2023-04-21T00:26:54;100219.38;;;7.89;100.00
4858;BME280;58975;51.978;8.472;2023-04-21T00:31:50;100215.88;;;7.89;100.00
4858;BME280;58975;51.978;8.472;2023-04-21T00:36:46;100211.44;;;7.89;100.00
4858;BME280;58975;51.978;8.472;2023-04-21T00:41:43;100213.13;;;7.90;100.00
4858;BME280;58975;51.978;8.472;2023-04-21T00:46:39;100206.00;;;8.03;100.00
4858;BME280;58975;51.978;8.472;2023-04-21T00:51:38;100204.13;;;8.17;100.00
4858;BME280;58975;51.978;8.472;2023-04-21T00:56:35;100200.50;;;8.30;100.00
4858;BME280;58975;51.978;8.472;2023-04-21T01:01:31;100194.53;;;8.27;100.00
4858;BME280;58975;51.978;8.472;2023-04-21T01:06:32;100197.19;;;8.27;100.00
4858;BME280;58975;51.978;8.472;2023-04-21T01:11:31;100202.34;;;8.28;100.00
4858;BME280;58975;51.978;8.472;2023-04-21T01:16:28;100204.72;;;8.33;100.00
4858;BME280;58975;51.978;8.472;2023-04-21T01:21:25;100205.47;;;8.35;100.00
4858;BME280;58975;51.978;8.472;2023-04-21T01:26:22;100200.25;;;8.33;100.00
4858;BME280;58975;51.978;8.472;2023-04-21T01:31:18;100200.91;;;8.48;100.00
4858;BME280;58975;51.978;8.472;2023-04-21T01:36:16;100202.63;;;8.60;100.00
4858;BME280;58975;51.978;8.472;2023-04-21T01:41:12;100197.84;;;8.65;100.00
4858;BME280;58975;51.978;8.472;2023-04-21T01:46:09;100190.84;;;8.75;100.00
4858;BME280;58975;51.978;8.472;2023-04-21T01:51:06;100195.81;;;8.69;100.00
4858;BME280;58975;51.978;8.472;2023-04-21T01:56:02;100187.50;;;8.73;100.00
4858;BME280;58975;51.978;8.472;2023-04-21T02:00:59;100191.72;;;8.76;100.00
4858;BME280;58975;51.978;8.472;2023-04-21T02:05:55;100196.13;;;8.64;100.00
4858;BME280;58975;51.978;8.472;2023-04-21T02:10:51;100203.13;;;8.54;100.00
4858;BME280;58975;51.978;8.472;2023-04-21T02:15:48;100206.97;;;8.50;100.00
4858;BME280;58975;51.978;8.472;2023-04-21T02:20:48;100209.09;;;8.45;100.00
4858;BME280;58975;51.978;8.472;2023-04-21T02:25:44;100212.94;;;8.41;100.00
4858;BME280;58975;51.978;8.472;2023-04-21T02:30:41;100221.22;;;8.60;100.00
4858;BME280;58975;51.978;8.472;2023-04-21T02:35:37;100230.91;;;8.72;100.00
4858;BME280;58975;51.978;8.472;2023-04-21T02:40:34;100223.94;;;8.82;100.00
4858;BME280;58975;51.978;8.472;2023-04-21T02:45:30;100229.72;;;8.76;100.00
4858;BME280;58975;51.978;8.472;2023-04-21T02:50:27;100239.38;;;8.66;100.00
4858;BME280;58975;51.978;8.472;2023-04-21T02:55:23;100243.59;;;8.69;100.00
4858;BME280;58975;51.978;8.472;2023-04-21T03:00:20;100248.88;;;8.69;100.00
4858;BME280;58975;51.978;8.472;2023-04-21T03:05:16;100245.34;;;8.57;100.00
4858;BME280;58975;51.978;8.472;2023-04-21T03:10:13;100256.88;;;8.45;100.00
4858;BME280;58975;51.978;8.472;2023-04-21T03:15:09;100258.00;;;8.30;100.00
4858;BME280;58975;51.978;8.472;2023-04-21T03:20:07;100256.94;;;8.20;100.00
4858;BME280;58975;51.978;8.472;2023-04-21T03:25:04;100252.97;;;8.01;100.00
4858;BME280;58975;51.978;8.472;2023-04-21T03:30:03;100249.19;;;7.80;100.00
4858;BME280;58975;51.978;8.472;2023-04-21T03:34:59;100252.53;;;7.71;100.00
4858;BME280;58975;51.978;8.472;2023-04-21T03:39:55;100262.59;;;7.66;100.00
4858;BME280;58975;51.978;8.472;2023-04-21T03:44:52;100252.22;;;7.50;100.00
4858;BME280;58975;51.978;8.472;2023-04-21T03:49:48;100257.13;;;7.56;100.00
4858;BME280;58975;51.978;8.472;2023-04-21T03:54:45;100261.88;;;7.39;100.00
4858;BME280;58975;51.978;8.472;2023-04-21T03:59:41;100256.69;;;7.37;100.00
4858;BME280;58975;51.978;8.472;2023-04-21T04:04:38;100259.75;;;7.19;100.00
4858;BME280;58975;51.978;8.472;2023-04-21T04:09:35;100250.97;;;7.18;100.00
4858;BME280;58975;51.978;8.472;2023-04-21T04:14:31;100257.09;;;7.19;100.00
4858;BME280;58975;51.978;8.472;2023-04-21T04:19:31;100246.84;;;7.01;100.00
4858;BME280;58975;51.978;8.472;2023-04-21T04:24:27;100253.72;;;7.17;100.00
4858;BME280;58975;51.978;8.472;2023-04-21T04:29:24;100257.53;;;7.12;100.00
4858;BME280;58975;51.978;8.472;2023-04-21T04:34:22;100258.72;;;7.21;100.00
4858;BME280;58975;51.978;8.472;2023-04-21T04:39:18;100255.09;;;7.35;100.00
4858;BME280;58975;51.978;8.472;2023-04-21T04:44:15;100248.63;;;7.51;100.00
4858;BME280;58975;51.978;8.472;2023-04-21T04:49:13;100248.63;;;7.51;100.00
4858;BME280;58975;51.978;8.472;2023-04-21T04:54:10;100246.75;;;7.41;100.00
4858;BME280;58975;51.978;8.472;2023-04-21T04:59:06;100246.84;;;7.52;100.00
4858;BME280;58975;51.978;8.472;2023-04-21T05:04:03;100244.13;;;7.77;100.00
4858;BME280;58975;51.978;8.472;2023-04-21T05:09:00;100251.66;;;7.83;100.00
4858;BME280;58975;51.978;8.472;2023-04-21T05:13:56;100259.41;;;8.10;100.00
4858;BME280;58975;51.978;8.472;2023-04-21T05:18:53;100267.94;;;8.39;100.00
4858;BME280;58975;51.978;8.472;2023-04-21T05:23:49;100269.19;;;8.70;100.00
4858;BME280;58975;51.978;8.472;2023-04-21T05:28:46;100264.56;;;9.07;100.00
4858;BME280;58975;51.978;8.472;2023-04-21T05:33:42;100267.19;;;9.53;100.00
4858;BME280;58975;51.978;8.472;2023-04-21T05:38:38;100260.53;;;9.91;100.00
4858;BME280;58975;51.978;8.472;2023-04-21T05:43:35;100271.63;;;10.08;100.00
4858;BME280;58975;51.978;8.472;2023-04-21T05:48:31;100270.28;;;10.24;100.00
4858;BME280;58975;51.978;8.472;2023-04-21T05:53:28;100258.06;;;10.33;100.00
4858;BME280;58975;51.978;8.472;2023-04-21T05:58:24;100269.44;;;10.35;100.00
4858;BME280;58975;51.978;8.472;2023-04-21T06:03:21;100268.00;;;10.20;100.00
4858;BME280;58975;51.978;8.472;2023-04-21T06:08:17;100259.19;;;9.97;100.00
4858;BME280;58975;51.978;8.472;2023-04-21T06:13:13;100266.47;;;9.84;100.00
4858;BME280;58975;51.978;8.472;2023-04-21T06:18:10;100263.41;;;10.11;100.00
4858;BME280;58975;51.978;8.472;2023-04-21T06:23:06;100254.19;;;10.37;100.00
4858;BME280;58975;51.978;8.472;2023-04-21T06:28:04;100250.72;;;10.57;100.00
4858;BME280;58975;51.978;8.472;2023-04-21T06:33:00;100253.50;;;10.87;100.00
4858;BME280;58975;51.978;8.472;2023-04-21T06:37:57;100252.66;;;11.28;100.00
4858;BME280;58975;51.978;8.472;2023-04-21T06:42:53;100245.78;;;11.56;100.00
4858;BME280;58975;51.978;8.472;2023-04-21T06:47:50;100235.72;;;11.69;100.00
4858;BME280;58975;51.978;8.472;2023-04-21T06:52:46;100239.50;;;11.97;100.00
4858;BME280;58975;51.978;8.472;2023-04-21T06:57:42;100229.56;;;12.09;100.00
4858;BME280;58975;51.978;8.472;2023-04-21T07:02:39;100238.03;;;12.33;100.00
4858;BME280;58975;51.978;8.472;2023-04-21T07:07:40;100239.47;;;12.66;100.00
4858;BME280;58975;51.978;8.472;2023-04-21T07:12:36;100226.38;;;12.82;100.00
4858;BME280;58975;51.978;8.472;2023-04-21T07:17:32;100229.44;;;13.06;100.00
4858;BME280;58975;51.978;8.472;2023-04-21T07:22:29;100230.03;;;13.19;100.00
4858;BME280;58975;51.978;8.472;2023-04-21T07:27:25;100230.69;;;13.41;100.00
4858;BME280;58975;51.978;8.472;2023-04-21T07:32:22;100234.59;;;13.46;100.00
4858;BME280;58975;51.978;8.472;2023-04-21T07:37:18;100235.03;;;13.79;100.00
4858;BME280;58975;51.978;8.472;2023-04-21T07:42:14;100224.00;;;14.09;100.00
4858;BME280;58975;51.978;8.472;2023-04-21T07:47:11;100221.34;;;14.36;100.00
4858;BME280;58975;51.978;8.472;2023-04-21T07:52:07;100225.78;;;14.45;100.00
4858;BME280;58975;51.978;8.472;2023-04-21T07:57:04;100218.44;;;14.65;100.00
4858;BME280;58975;51.978;8.472;2023-04-21T08:02:02;100223.91;;;14.99;100.00
4858;BME280;58975;51.978;8.472;2023-04-21T08:06:59;100229.63;;;15.47;100.00
4858;BME280;58975;51.978;8.472;2023-04-21T08:11:55;100222.03;;;15.69;100.00
4858;BME280;58975;51.978;8.472;2023-04-21T08:16:53;100219.50;;;15.41;100.00
4858;BME280;58975;51.978;8.472;2023-04-21T08:21:52;100213.69;;;15.20;100.00
4858;BME280;58975;51.978;8.472;2023-04-21T08:26:48;100210.53;;;14.63;100.00
4858;BME280;58975;51.978;8.472;2023-04-21T08:31:45;100205.53;;;14.33;100.00
4858;BME280;58975;51.978;8.472;2023-04-21T08:36:41;100209.50;;;14.39;100.00
4858;BME280;58975;51.978;8.472;2023-04-21T08:41:38;100207.78;;;14.38;100.00
4858;BME280;58975;51.978;8.472;2023-04-21T08:46:39;100212.84;;;14.41;100.00
4858;BME280;58975;51.978;8.472;2023-04-21T08:51:35;100211.19;;;14.30;100.00
4858;BME280;58975;51.978;8.472;2023-04-21T08:56:32;100206.59;;;14.50;100.00
4858;BME280;58975;51.978;8.472;2023-04-21T09:01:30;100209.25;;;14.67;100.00
4858;BME280;58975;51.978;8.472;2023-04-21T09:06:38;100201.53;;;15.59;100.00
4858;BME280;58975;51.978;8.472;2023-04-21T09:11:36;100192.81;;;16.74;100.00
4858;BME280;58975;51.978;8.472;2023-04-21T09:16:32;100187.78;;;17.50;100.00
4858;BME280;58975;51.978;8.472;2023-04-21T09:21:29;100189.38;;;17.91;100.00
4858;BME280;58975;51.978;8.472;2023-04-21T09:26:27;100190.53;;;17.89;100.00
4858;BME280;58975;51.978;8.472;2023-04-21T09:31:24;100182.91;;;17.54;94.21
4858;BME280;58975;51.978;8.472;2023-04-21T09:36:25;100184.31;;;17.25;100.00
4858;BME280;58975;51.978;8.472;2023-04-21T09:41:23;100192.06;;;17.28;91.23
4858;BME280;58975;51.978;8.472;2023-04-21T09:46:20;100180.81;;;17.25;92.49
4858;BME280;58975;51.978;8.472;2023-04-21T09:51:19;100171.50;;;17.43;95.29
4858;BME280;58975;51.978;8.472;2023-04-21T09:56:39;100171.34;;;17.84;83.49
4858;BME280;58975;51.978;8.472;2023-04-21T10:01:36;100158.75;;;17.29;84.86
4858;BME280;58975;51.978;8.472;2023-04-21T10:06:34;100165.53;;;17.09;100.00
4858;BME280;58975;51.978;8.472;2023-04-21T10:11:31;100158.00;;;16.88;96.55
4858;BME280;58975;51.978;8.472;2023-04-21T10:16:29;100152.28;;;16.67;100.00
4858;BME280;58975;51.978;8.472;2023-04-21T10:21:26;100149.78;;;16.58;99.70
4858;BME280;58975;51.978;8.472;2023-04-21T10:26:33;100127.47;;;17.28;100.00
4858;BME280;58975;51.978;8.472;2023-04-21T10:31:32;100131.19;;;17.27;100.00
4858;BME280;58975;51.978;8.472;2023-04-21T10:36:30;100122.78;;;17.22;95.46
4858;BME280;58975;51.978;8.472;2023-04-21T10:41:30;100123.78;;;17.68;98.01
4858;BME280;58975;51.978;8.472;2023-04-21T10:46:35;100104.81;;;18.15;87.15
4858;BME280;58975;51.978;8.472;2023-04-21T10:51:32;100096.44;;;17.87;91.00
4858;BME280;58975;51.978;8.472;2023-04-21T10:56:28;100088.31;;;18.41;82.93
4858;BME280;58975;51.978;8.472;2023-04-21T11:01:25;100082.19;;;18.24;87.47
4858;BME280;58975;51.978;8.472;2023-04-21T11:06:21;100082.84;;;17.81;86.04
4858;BME280;58975;51.978;8.472;2023-04-21T11:11:22;100061.72;;;18.15;91.33
4858;BME280;58975;51.978;8.472;2023-04-21T11:16:22;100060.44;;;18.11;87.37
4858;BME280;58975;51.978;8.472;2023-04-21T11:21:19;100055.00;;;18.34;85.14
4858;BME280;58975;51.978;8.472;2023-04-21T11:26:33;100055.00;;;18.34;76.13
4858;BME280;58975;51.978;8.472;2023-04-21T11:31:30;100047.13;;;19.28;74.66
4858;BME280;58975;51.978;8.472;2023-04-21T11:36:26;100023.59;;;20.15;65.71
4858;BME280;58975;51.978;8.472;2023-04-21T11:41:24;100013.94;;;19.64;64.04
4858;BME280;58975;51.978;8.472;2023-04-21T11:46:25;100016.38;;;19.59;64.76
4858;BME280;58975;51.978;8.472;2023-04-21T11:51:22;100020.53;;;19.61;64.99
4858;BME280;58975;51.978;8.472;2023-04-21T11:56:22;100016.06;;;19.03;64.60
4858;BME280;58975;51.978;8.472;2023-04-21T12:01:19;99986.16;;;19.19;54.74
4858;BME280;58975;51.978;8.472;2023-04-21T12:06:25;99976.88;;;19.07;53.26
4858;BME280;58975;51.978;8.472;2023-04-21T12:11:26;99976.53;;;18.81;53.06
4858;BME280;58975;51.978;8.472;2023-04-21T12:16:27;99983.56;;;19.11;53.44
4858;BME280;58975;51.978;8.472;2023-04-21T12:21:27;99952.88;;;19.69;51.46
4858;BME280;58975;51.978;8.472;2023-04-21T12:26:24;99963.44;;;19.28;50.36
4858;BME280;58975;51.978;8.472;2023-04-21T12:31:20;99952.75;;;19.42;49.05
4858;BME280;58975;51.978;8.472;2023-04-21T12:36:18;99950.97;;;19.27;49.95
4858;BME280;58975;51.978;8.472;2023-04-21T12:41:14;99934.94;;;20.32;49.81
4858;BME280;58975;51.978;8.472;2023-04-21T12:46:11;99920.09;;;20.90;47.31
4858;BME280;58975;51.978;8.472;2023-04-21T12:51:07;99920.31;;;20.95;45.64
4858;BME280;58975;51.978;8.472;2023-04-21T12:56:04;99922.53;;;21.19;44.39
4858;BME280;58975;51.978;8.472;2023-04-21T13:01:01;99919.25;;;20.90;44.51
4858;BME280;58975;51.978;8.472;2023-04-21T13:05:57;99899.75;;;21.07;43.69
4858;BME280;58975;51.978;8.472;2023-04-21T13:10:53;99902.94;;;21.17;42.97
4858;BME280;58975;51.978;8.472;2023-04-21T13:15:50;99901.97;;;20.91;43.08
4858;BME280;58975;51.978;8.472;2023-04-21T13:20:47;99919.16;;;20.36;45.04
4858;BME280;58975;51.978;8.472;2023-04-21T13:25:43;99915.25;;;20.17;46.38
4858;BME280;58975;51.978;8.472;2023-04-21T13:30:40;99906.06;;;20.11;46.12
4858;BME280;58975;51.978;8.472;2023-04-21T13:35:37;99899.00;;;20.10;45.92
4858;BME280;58975;51.978;8.472;2023-04-21T13:40:33;99891.34;;;20.42;47.03
4858;BME280;58975;51.978;8.472;2023-04-21T13:45:30;99880.25;;;20.71;44.25
4858;BME280;58975;51.978;8.472;2023-04-21T13:50:26;99874.00;;;20.29;44.16
4858;BME280;58975;51.978;8.472;2023-04-21T13:55:23;99851.53;;;20.70;43.88
4858;BME280;58975;51.978;8.472;2023-04-21T14:00:20;99864.06;;;20.15;42.93
4858;BME280;58975;51.978;8.472;2023-04-21T14:05:17;99850.88;;;19.71;44.23
4858;BME280;58975;51.978;8.472;2023-04-21T14:10:14;99850.91;;;19.50;45.52
4858;BME280;58975;51.978;8.472;2023-04-21T14:15:11;99849.84;;;20.00;44.88
4858;BME280;58975;51.978;8.472;2023-04-21T14:20:08;99829.72;;;20.37;43.63
4858;BME280;58975;51.978;8.472;2023-04-21T14:25:05;99842.81;;;20.81;45.43
4858;BME280;58975;51.978;8.472;2023-04-21T14:30:01;99837.13;;;20.63;44.49
4858;BME280;58975;51.978;8.472;2023-04-21T14:34:59;99831.97;;;19.99;45.07
4858;BME280;58975;51.978;8.472;2023-04-21T14:39:55;99828.00;;;19.67;47.03
4858;BME280;58975;51.978;8.472;2023-04-21T14:44:52;99811.63;;;19.48;47.68
4858;BME280;58975;51.978;8.472;2023-04-21T14:49:48;99812.09;;;19.58;47.61
4858;BME280;58975;51.978;8.472;2023-04-21T14:54:50;99817.13;;;19.40;48.13
4858;BME280;58975;51.978;8.472;2023-04-21T14:59:48;99810.97;;;19.24;48.41
4858;BME280;58975;51.978;8.472;2023-04-21T15:04:45;99809.34;;;19.30;48.46
4858;BME280;58975;51.978;8.472;2023-04-21T15:09:42;99795.28;;;19.56;49.90
4858;BME280;58975;51.978;8.472;2023-04-21T15:14:40;99793.75;;;20.09;49.28
4858;BME280;58975;51.978;8.472;2023-04-21T15:19:37;99787.31;;;20.10;48.96
4858;BME280;58975;51.978;8.472;2023-04-21T15:24:33;99786.88;;;19.72;50.05
4858;BME280;58975;51.978;8.472;2023-04-21T15:29:30;99789.69;;;19.15;51.51
4858;BME280;58975;51.978;8.472;2023-04-21T15:34:26;99791.66;;;19.06;52.72
4858;BME280;58975;51.978;8.472;2023-04-21T15:39:22;99786.50;;;18.90;53.11
4858;BME280;58975;51.978;8.472;2023-04-21T15:44:19;99780.09;;;18.70;53.07
4858;BME280;58975;51.978;8.472;2023-04-21T15:49:16;99789.13;;;18.48;54.23
4858;BME280;58975;51.978;8.472;2023-04-21T15:54:12;99781.63;;;18.28;55.32
4858;BME280;58975;51.978;8.472;2023-04-21T15:59:08;99779.88;;;18.21;56.02
4858;BME280;58975;51.978;8.472;2023-04-21T16:04:05;99766.84;;;18.24;56.48
4858;BME280;58975;51.978;8.472;2023-04-21T16:09:02;99764.16;;;18.24;55.41
4858;BME280;58975;51.978;8.472;2023-04-21T16:13:58;99765.00;;;18.10;55.79
4858;BME280;58975;51.978;8.472;2023-04-21T16:18:55;99758.97;;;18.08;57.05
4858;BME280;58975;51.978;8.472;2023-04-21T16:23:51;99752.94;;;18.06;58.50
4858;BME280;58975;51.978;8.472;2023-04-21T16:28:47;99756.91;;;17.95;58.45
4858;BME280;58975;51.978;8.472;2023-04-21T16:33:44;99744.03;;;17.91;58.63
4858;BME280;58975;51.978;8.472;2023-04-21T16:38:41;99742.44;;;17.82;59.16
4858;BME280;58975;51.978;8.472;2023-04-21T16:43:37;99742.38;;;17.75;58.35
4858;BME280;58975;51.978;8.472;2023-04-21T16:48:34;99734.00;;;17.70;58.56
4858;BME280;58975;51.978;8.472;2023-04-21T16:53:30;99731.69;;;17.67;59.83
4858;BME280;58975;51.978;8.472;2023-04-21T16:58:26;99724.56;;;20.62;52.55
4858;BME280;58975;51.978;8.472;2023-04-21T17:03:23;99708.41;;;21.28;49.03
4858;BME280;58975;51.978;8.472;2023-04-21T17:08:22;99722.69;;;18.97;53.50
4858;BME280;58975;51.978;8.472;2023-04-21T17:13:19;99710.59;;;18.72;54.96
4858;BME280;58975;51.978;8.472;2023-04-21T17:18:15;99710.00;;;20.76;51.35
4858;BME280;58975;51.978;8.472;2023-04-21T17:23:11;99698.47;;;22.50;45.91
4858;BME280;58975;51.978;8.472;2023-04-21T17:28:08;99700.91;;;21.16;47.82
4858;BME280;58975;51.978;8.472;2023-04-21T17:33:04;99698.00;;;19.00;52.34
4858;BME280;58975;51.978;8.472;2023-04-21T17:38:12;99704.78;;;18.18;55.82
4858;BME280;58975;51.978;8.472;2023-04-21T17:43:08;99706.22;;;17.70;57.45
4858;BME280;58975;51.978;8.472;2023-04-21T17:48:04;99699.59;;;17.43;58.93
4858;BME280;58975;51.978;8.472;2023-04-21T17:53:01;99701.66;;;17.85;58.59
4858;BME280;58975;51.978;8.472;2023-04-21T17:57:58;99688.84;;;17.87;57.29
4858;BME280;58975;51.978;8.472;2023-04-21T18:02:55;99704.66;;;17.23;59.76
4858;BME280;58975;51.978;8.472;2023-04-21T18:07:51;99705.09;;;16.97;60.91
4858;BME280;58975;51.978;8.472;2023-04-21T18:12:48;99704.75;;;16.78;61.78
4858;BME280;58975;51.978;8.472;2023-04-21T18:17:44;99707.56;;;16.53;63.38
4858;BME280;58975;51.978;8.472;2023-04-21T18:22:41;99696.13;;;16.51;63.28
4858;BME280;58975;51.978;8.472;2023-04-21T18:27:39;99696.03;;;16.45;63.42
4858;BME280;58975;51.978;8.472;2023-04-21T18:32:36;99694.53;;;16.42;63.22
4858;BME280;58975;51.978;8.472;2023-04-21T18:37:32;99693.22;;;16.38;62.85
4858;BME280;58975;51.978;8.472;2023-04-21T18:42:29;99698.31;;;16.25;63.58
4858;BME280;58975;51.978;8.472;2023-04-21T18:47:25;99694.63;;;16.26;63.30
4858;BME280;58975;51.978;8.472;2023-04-21T18:52:22;99700.66;;;16.28;63.15
4858;BME280;58975;51.978;8.472;2023-04-21T18:57:18;99709.06;;;16.25;63.68
4858;BME280;58975;51.978;8.472;2023-04-21T19:02:15;99712.28;;;16.21;63.30
4858;BME280;58975;51.978;8.472;2023-04-21T19:07:11;99714.56;;;16.01;63.80
4858;BME280;58975;51.978;8.472;2023-04-21T19:12:10;99710.94;;;15.86;64.47
4858;BME280;58975;51.978;8.472;2023-04-21T19:17:07;99714.63;;;15.85;64.57
4858;BME280;58975;51.978;8.472;2023-04-21T19:22:03;99708.56;;;15.91;63.27
4858;BME280;58975;51.978;8.472;2023-04-21T19:27:00;99711.09;;;15.84;63.88
4858;BME280;58975;51.978;8.472;2023-04-21T19:31:57;99706.56;;;15.85;62.60
4858;BME280;58975;51.978;8.472;2023-04-21T19:36:54;99712.28;;;15.82;63.47
4858;BME280;58975;51.978;8.472;2023-04-21T19:41:50;99717.03;;;15.72;63.71
4858;BME280;58975;51.978;8.472;2023-04-21T19:46:47;99711.72;;;15.55;64.63
4858;BME280;58975;51.978;8.472;2023-04-21T19:51:43;99715.41;;;15.30;65.60
4858;BME280;58975;51.978;8.472;2023-04-21T19:56:39;99715.44;;;15.14;67.06
4858;BME280;58975;51.978;8.472;2023-04-21T20:01:36;99720.13;;;14.88;68.82
4858;BME280;58975;51.978;8.472;2023-04-21T20:06:32;99710.41;;;15.19;67.93
4858;BME280;58975;51.978;8.472;2023-04-21T20:11:29;99721.13;;;15.35;66.95
4858;BME280;58975;51.978;8.472;2023-04-21T20:16:26;99706.50;;;15.46;66.27
4858;BME280;58975;51.978;8.472;2023-04-21T20:21:23;99720.41;;;15.57;65.39
4858;BME280;58975;51.978;8.472;2023-04-21T20:26:19;99736.53;;;15.49;66.29
4858;BME280;58975;51.978;8.472;2023-04-21T20:31:16;99754.81;;;15.54;66.02
4858;BME280;58975;51.978;8.472;2023-04-21T20:36:14;99765.38;;;15.47;65.99
4858;BME280;58975;51.978;8.472;2023-04-21T20:41:10;99766.03;;;15.41;66.29
4858;BME280;58975;51.978;8.472;2023-04-21T20:46:08;99768.75;;;15.09;71.05
4858;BME280;58975;51.978;8.472;2023-04-21T20:51:04;99780.13;;;14.95;72.93
4858;BME280;58975;51.978;8.472;2023-04-21T20:56:00;99771.59;;;14.99;72.72
4858;BME280;58975;51.978;8.472;2023-04-21T21:00:57;99748.97;;;14.86;74.01
4858;BME280;58975;51.978;8.472;2023-04-21T21:05:53;99738.88;;;14.63;77.37
4858;BME280;58975;51.978;8.472;2023-04-21T21:10:50;99730.44;;;14.34;79.64
4858;BME280;58975;51.978;8.472;2023-04-21T21:15:46;99720.81;;;14.15;84.70
4858;BME280;58975;51.978;8.472;2023-04-21T21:20:43;99710.34;;;13.88;96.14
4858;BME280;58975;51.978;8.472;2023-04-21T21:25:39;99709.94;;;13.41;100.00
4858;BME280;58975;51.978;8.472;2023-04-21T21:30:35;99712.69;;;13.23;100.00
4858;BME280;58975;51.978;8.472;2023-04-21T21:35:32;99705.81;;;13.03;100.00
4858;BME280;58975;51.978;8.472;2023-04-21T21:40:28;99705.91;;;12.94;100.00
4858;BME280;58975;51.978;8.472;2023-04-21T21:45:25;99735.16;;;12.95;100.00
4858;BME280;58975;51.978;8.472;2023-04-21T21:50:21;99799.94;;;13.50;100.00
4858;BME280;58975;51.978;8.472;2023-04-21T21:55:18;99801.84;;;13.92;100.00
4858;BME280;58975;51.978;8.472;2023-04-21T22:00:14;99803.31;;;14.12;100.00
4858;BME280;58975;51.978;8.472;2023-04-21T22:05:11;99771.91;;;14.22;100.00
4858;BME280;58975;51.978;8.472;2023-04-21T22:10:09;99743.44;;;14.21;100.00
4858;BME280;58975;51.978;8.472;2023-04-21T22:15:06;99740.75;;;14.21;100.00
4858;BME280;58975;51.978;8.472;2023-04-21T22:20:03;99730.66;;;13.99;100.00
4858;BME280;58975;51.978;8.472;2023-04-21T22:25:03;99726.56;;;13.87;100.00
4858;BME280;58975;51.978;8.472;2023-04-21T22:30:00;99732.22;;;13.76;100.00
4858;BME280;58975;51.978;8.472;2023-04-21T22:34:58;99713.34;;;13.51;100.00
4858;BME280;58975;51.978;8.472;2023-04-21T22:39:55;99711.41;;;13.36;100.00
4858;BME280;58975;51.978;8.472;2023-04-21T22:44:52;99717.44;;;13.12;100.00
4858;BME280;58975;51.978;8.472;2023-04-21T22:49:48;99723.47;;;12.96;100.00
4858;BME280;58975;51.978;8.472;2023-04-21T22:54:45;99717.44;;;12.59;100.00
4858;BME280;58975;51.978;8.472;2023-04-21T22:59:41;99710.97;;;12.26;100.00
4858;BME280;58975;51.978;8.472;2023-04-21T23:04:37;99720.22;;;12.04;100.00
4858;BME280;58975;51.978;8.472;2023-04-21T23:09:34;99716.31;;;11.62;100.00
4858;BME280;58975;51.978;8.472;2023-04-21T23:14:31;99720.56;;;11.55;100.00
4858;BME280;58975;51.978;8.472;2023-04-21T23:19:27;99713.81;;;11.60;100.00
4858;BME280;58975;51.978;8.472;2023-04-21T23:24:24;99714.38;;;11.54;100.00
4858;BME280;58975;51.978;8.472;2023-04-21T23:29:20;99713.25;;;11.57;100.00
4858;BME280;58975;51.978;8.472;2023-04-21T23:34:17;99709.47;;;11.50;100.00
4858;BME280;58975;51.978;8.472;2023-04-21T23:39:13;99710.25;;;11.32;100.00
4858;BME280;58975;51.978;8.472;2023-04-21T23:44:10;99694.88;;;11.17;100.00
4858;BME280;58975;51.978;8.472;2023-04-21T23:49:06;99690.22;;;11.19;100.00
4858;BME280;58975;51.978;8.472;2023-04-21T23:54:03;99695.44;;;11.11;100.00
4858;BME280;58975;51.978;8.472;2023-04-21T23:58:59;99706.41;;;10.88;100.00
